createdAt,value
2022-10-26T00:00:49.999Z,12.90
2022-10-26T00:02:50.278Z,12.90
2022-10-26T00:04:50.017Z,12.90
2022-10-26T00:06:50.019Z,12.90
2022-10-26T00:08:50.008Z,12.80
2022-10-26T00:10:50.095Z,12.80
2022-10-26T00:12:50.434Z,12.80
2022-10-26T00:14:49.992Z,12.80
2022-10-26T00:16:50.027Z,12.80
2022-10-26T00:18:50.082Z,12.80
2022-10-26T00:20:50.026Z,12.70
2022-10-26T00:22:50.084Z,12.60
2022-10-26T00:24:50.030Z,12.60
2022-10-26T00:26:49.989Z,12.50
2022-10-26T00:28:50.009Z,12.50
2022-10-26T00:30:50.001Z,12.60
2022-10-26T00:32:50.076Z,12.60
2022-10-26T00:34:50.091Z,12.60
2022-10-26T00:36:50.020Z,12.60
2022-10-26T00:38:50.071Z,12.60
2022-10-26T00:40:50.133Z,12.60
2022-10-26T00:42:50.317Z,12.60
2022-10-26T00:44:50.046Z,12.60
2022-10-26T00:46:50.029Z,12.70
2022-10-26T00:48:50.026Z,12.70
2022-10-26T00:50:50.035Z,12.70
2022-10-26T00:52:50.323Z,12.70
2022-10-26T00:54:50.063Z,12.70
2022-10-26T00:56:50.071Z,12.70
2022-10-26T00:58:50.181Z,12.70
2022-10-26T01:00:50.050Z,12.60
2022-10-26T01:02:50.209Z,12.60
2022-10-26T01:04:50.146Z,12.60
2022-10-26T01:06:50.051Z,12.70
2022-10-26T01:08:50.045Z,12.70
2022-10-26T01:10:50.034Z,12.70
2022-10-26T01:12:50.129Z,12.70
2022-10-26T01:14:50.089Z,12.60
2022-10-26T01:16:50.107Z,12.60
2022-10-26T01:18:50.147Z,12.40
2022-10-26T01:20:50.033Z,12.40
2022-10-26T01:22:50.091Z,12.40
2022-10-26T01:24:50.084Z,12.30
2022-10-26T01:26:50.033Z,12.20
2022-10-26T01:28:50.048Z,12.20
2022-10-26T01:30:50.050Z,12.20
2022-10-26T01:32:50.145Z,12.10
2022-10-26T01:34:50.061Z,12.00
2022-10-26T01:36:50.048Z,12.00
2022-10-26T01:38:50.066Z,12.00
2022-10-26T01:40:50.108Z,12.00
2022-10-26T01:42:50.079Z,12.00
2022-10-26T01:44:50.129Z,12.00
2022-10-26T01:46:50.071Z,12.00
2022-10-26T01:48:50.067Z,12.10
2022-10-26T01:50:50.176Z,12.10
2022-10-26T01:52:50.065Z,12.10
2022-10-26T01:54:50.081Z,12.20
2022-10-26T01:57:20.151Z,12.20
2022-10-26T01:59:20.086Z,12.20
2022-10-26T02:01:20.131Z,12.20
2022-10-26T02:03:20.165Z,12.20
2022-10-26T02:05:20.108Z,12.30
2022-10-26T02:07:20.055Z,12.30
2022-10-26T02:09:20.079Z,12.40
2022-10-26T02:11:20.095Z,12.50
2022-10-26T02:13:20.129Z,12.50
2022-10-26T02:15:20.076Z,12.50
2022-10-26T02:17:20.064Z,12.50
2022-10-26T02:19:20.081Z,12.60
2022-10-26T02:21:20.256Z,12.60
2022-10-26T02:23:20.089Z,12.50
2022-10-26T02:25:20.110Z,12.60
2022-10-26T02:27:20.156Z,12.60
2022-10-26T02:29:20.151Z,12.60
2022-10-26T02:31:20.090Z,12.60
2022-10-26T02:33:20.109Z,12.60
2022-10-26T02:35:20.103Z,12.60
2022-10-26T02:37:20.085Z,12.60
2022-10-26T02:39:20.097Z,12.60
2022-10-26T02:41:20.150Z,12.60
2022-10-26T02:43:20.223Z,12.60
2022-10-26T02:45:20.162Z,12.60
2022-10-26T02:47:20.089Z,12.60
2022-10-26T02:49:20.101Z,12.60
2022-10-26T02:51:20.108Z,12.60
2022-10-26T02:53:20.142Z,12.60
2022-10-26T02:55:20.102Z,12.60
2022-10-26T02:57:20.156Z,12.60
2022-10-26T02:59:20.152Z,12.60
2022-10-26T03:01:20.166Z,12.60
2022-10-26T03:03:20.122Z,12.50
2022-10-26T03:05:20.116Z,12.50
2022-10-26T03:07:20.153Z,12.40
2022-10-26T03:09:22.205Z,12.40
2022-10-26T03:11:20.115Z,12.40
2022-10-26T03:13:20.150Z,12.40
2022-10-26T03:15:20.160Z,12.40
2022-10-26T03:17:20.151Z,12.40
2022-10-26T03:19:20.133Z,12.40
2022-10-26T03:21:20.105Z,12.40
2022-10-26T03:23:20.154Z,12.40
2022-10-26T03:25:20.133Z,12.40
2022-10-26T03:27:27.688Z,12.40
2022-10-26T03:29:20.171Z,12.40
2022-10-26T03:31:20.155Z,12.50
2022-10-26T03:33:22.360Z,12.40
2022-10-26T03:35:20.148Z,12.40
2022-10-26T03:37:20.181Z,12.40
2022-10-26T03:39:20.208Z,12.40
2022-10-26T03:41:20.132Z,12.40
2022-10-26T03:43:20.166Z,12.40
2022-10-26T03:45:20.234Z,12.40
2022-10-26T03:47:20.124Z,12.40
2022-10-26T03:49:20.196Z,12.40
2022-10-26T03:51:20.193Z,12.40
2022-10-26T03:53:20.257Z,12.40
2022-10-26T03:55:50.147Z,12.40
2022-10-26T03:57:50.164Z,12.40
2022-10-26T03:59:50.205Z,12.40
2022-10-26T04:01:52.794Z,12.40
2022-10-26T04:03:50.257Z,12.40
2022-10-26T04:05:50.189Z,12.40
2022-10-26T04:07:50.466Z,12.50
2022-10-26T04:09:50.294Z,12.60
2022-10-26T04:11:50.203Z,12.60
2022-10-26T04:13:50.221Z,12.60
2022-10-26T04:15:51.416Z,12.60
2022-10-26T04:17:50.532Z,12.60
2022-10-26T04:19:50.194Z,12.60
2022-10-26T04:21:50.322Z,12.60
2022-10-26T04:23:50.220Z,12.60
2022-10-26T04:25:50.162Z,12.60
2022-10-26T04:27:50.536Z,12.60
2022-10-26T04:29:50.187Z,12.60
2022-10-26T04:31:50.166Z,12.50
2022-10-26T04:33:50.175Z,12.50
2022-10-26T04:35:50.193Z,12.50
2022-10-26T04:37:50.393Z,12.50
2022-10-26T04:39:50.290Z,12.50
2022-10-26T04:41:50.206Z,12.60
2022-10-26T04:43:50.253Z,12.60
2022-10-26T04:45:50.261Z,12.70
2022-10-26T04:47:50.275Z,12.70
2022-10-26T04:49:50.244Z,12.70
2022-10-26T04:51:50.371Z,12.80
2022-10-26T04:53:50.298Z,12.80
2022-10-26T04:55:50.221Z,12.80
2022-10-26T04:57:50.658Z,12.90
2022-10-26T04:59:51.280Z,12.90
2022-10-26T05:01:50.431Z,12.90
2022-10-26T05:03:50.302Z,12.90
2022-10-26T05:05:50.329Z,13.00
2022-10-26T05:07:50.559Z,13.00
2022-10-26T05:09:50.258Z,13.00
2022-10-26T05:11:50.259Z,13.00
2022-10-26T05:13:50.312Z,13.00
2022-10-26T05:15:50.251Z,13.00
2022-10-26T05:19:50.290Z,12.90
2022-10-26T05:21:50.201Z,12.90
2022-10-26T05:23:50.184Z,12.70
2022-10-26T05:25:50.226Z,12.50
2022-10-26T05:27:50.257Z,12.30
2022-10-26T05:29:50.308Z,12.30
2022-10-26T05:33:57.068Z,12.00
2022-10-26T05:35:57.049Z,12.00
2022-10-26T05:37:57.094Z,11.90
2022-10-26T05:39:57.073Z,11.90
2022-10-26T05:41:57.063Z,11.80
2022-10-26T05:43:57.148Z,11.80
2022-10-26T05:45:57.014Z,11.80
2022-10-26T05:47:59.989Z,11.70
2022-10-26T05:49:57.031Z,11.70
2022-10-26T05:51:56.988Z,11.60
2022-10-26T05:53:57.105Z,11.60
2022-10-26T05:55:57.010Z,11.60
2022-10-26T05:57:57.108Z,11.60
2022-10-26T05:59:57.112Z,11.60
2022-10-26T06:01:57.162Z,11.60
2022-10-26T06:03:57.034Z,11.70
2022-10-26T06:05:57.028Z,11.70
2022-10-26T06:07:57.058Z,11.70
2022-10-26T06:09:57.139Z,11.80
2022-10-26T06:11:57.060Z,11.80
2022-10-26T06:13:57.148Z,11.80
2022-10-26T06:15:57.013Z,11.80
2022-10-26T06:18:27.116Z,11.90
2022-10-26T06:20:27.060Z,11.90
2022-10-26T06:22:27.107Z,11.90
2022-10-26T06:24:27.050Z,11.90
2022-10-26T06:26:27.043Z,12.00
2022-10-26T06:28:27.090Z,12.00
2022-10-26T06:30:27.102Z,12.00
2022-10-26T06:32:27.032Z,12.00
2022-10-26T06:34:27.076Z,12.00
2022-10-26T06:36:27.131Z,12.10
2022-10-26T06:38:27.053Z,12.10
2022-10-26T06:40:27.062Z,12.10
2022-10-26T06:42:27.100Z,12.10
2022-10-26T06:44:27.025Z,12.10
2022-10-26T06:46:27.064Z,12.10
2022-10-26T06:48:27.071Z,12.00
2022-10-26T06:50:27.032Z,12.00
2022-10-26T06:52:27.079Z,12.10
2022-10-26T06:54:27.174Z,12.00
2022-10-26T06:56:27.085Z,12.00
2022-10-26T06:58:27.037Z,12.00
2022-10-26T07:00:27.136Z,12.10
2022-10-26T07:02:27.158Z,12.10
2022-10-26T07:04:27.048Z,12.20
2022-10-26T07:06:27.083Z,12.20
2022-10-26T07:08:27.090Z,12.20
2022-10-26T07:10:27.101Z,12.30
2022-10-26T07:12:30.770Z,12.30
2022-10-26T07:14:27.173Z,12.40
2022-10-26T07:16:27.064Z,12.40
2022-10-26T07:18:27.091Z,12.40
2022-10-26T07:20:27.103Z,12.40
2022-10-26T07:22:27.066Z,12.40
2022-10-26T07:24:27.169Z,12.50
2022-10-26T07:26:27.117Z,12.50
2022-10-26T07:28:27.066Z,12.50
2022-10-26T07:30:27.089Z,12.50
2022-10-26T07:32:27.060Z,12.50
2022-10-26T07:34:27.091Z,12.60
2022-10-26T07:36:27.106Z,12.60
2022-10-26T07:38:27.169Z,12.70
2022-10-26T07:40:27.196Z,12.70
2022-10-26T07:42:27.128Z,12.70
2022-10-26T07:44:27.102Z,12.80
2022-10-26T07:46:27.076Z,12.80
2022-10-26T07:48:27.100Z,12.80
2022-10-26T07:50:27.103Z,12.80
2022-10-26T07:52:27.083Z,12.90
2022-10-26T07:54:27.079Z,13.00
2022-10-26T07:56:27.090Z,13.00
2022-10-26T07:58:27.138Z,13.10
2022-10-26T08:00:27.200Z,13.10
2022-10-26T08:02:27.087Z,13.10
2022-10-26T08:04:27.077Z,13.10
2022-10-26T08:06:27.085Z,13.30
2022-10-26T08:08:27.181Z,13.30
2022-10-26T08:10:57.139Z,13.40
2022-10-26T08:12:57.105Z,13.40
2022-10-26T08:14:57.141Z,13.40
2022-10-26T08:16:57.122Z,13.50
2022-10-26T08:18:57.225Z,13.50
2022-10-26T08:21:01.896Z,13.50
2022-10-26T08:22:57.140Z,13.60
2022-10-26T08:24:57.120Z,13.60
2022-10-26T08:26:57.124Z,13.60
2022-10-26T08:28:57.117Z,13.60
2022-10-26T08:30:57.098Z,13.60
2022-10-26T08:32:57.126Z,13.60
2022-10-26T08:34:57.109Z,13.60
2022-10-26T08:36:57.159Z,13.60
2022-10-26T08:38:57.190Z,13.60
2022-10-26T08:40:57.187Z,13.70
2022-10-26T08:42:57.141Z,13.70
2022-10-26T08:44:57.147Z,13.70
2022-10-26T08:46:57.120Z,13.90
2022-10-26T08:48:57.146Z,14.00
2022-10-26T08:50:57.132Z,14.10
2022-10-26T08:52:57.128Z,14.10
2022-10-26T08:54:57.153Z,14.20
2022-10-26T08:56:57.133Z,14.30
2022-10-26T08:58:57.166Z,14.40
2022-10-26T09:00:57.154Z,14.40
2022-10-26T09:02:57.145Z,14.40
2022-10-26T09:04:57.180Z,14.50
2022-10-26T09:06:57.182Z,14.60
2022-10-26T09:08:57.130Z,14.60
2022-10-26T09:10:57.152Z,14.60
2022-10-26T09:12:57.141Z,14.60
2022-10-26T09:14:57.181Z,14.80
2022-10-26T09:16:57.187Z,15.00
2022-10-26T09:18:58.958Z,15.20
2022-10-26T09:20:57.146Z,15.20
2022-10-26T09:22:57.182Z,15.50
2022-10-26T09:24:57.175Z,15.50
2022-10-26T09:26:57.263Z,15.90
2022-10-26T09:28:57.163Z,15.90
2022-10-26T09:30:57.198Z,16.00
2022-10-26T09:32:57.204Z,15.90
2022-10-26T09:34:57.153Z,16.00
2022-10-26T09:36:57.177Z,15.80
2022-10-26T09:38:57.197Z,15.80
2022-10-26T09:40:57.168Z,15.80
2022-10-26T09:42:57.167Z,15.80
2022-10-26T09:44:57.152Z,15.90
2022-10-26T09:46:57.158Z,15.80
2022-10-26T09:48:57.329Z,15.80
2022-10-26T09:51:01.868Z,15.90
2022-10-26T09:52:57.189Z,16.00
2022-10-26T09:54:57.161Z,16.00
2022-10-26T09:56:57.191Z,16.10
2022-10-26T09:58:57.264Z,16.10
2022-10-26T10:00:57.188Z,16.10
2022-10-26T10:02:57.227Z,16.30
2022-10-26T10:05:49.778Z,16.30
2022-10-26T10:07:27.205Z,16.40
2022-10-26T10:09:28.282Z,16.50
2022-10-26T10:11:27.216Z,16.50
2022-10-26T10:13:27.213Z,16.70
2022-10-26T10:15:27.221Z,16.80
2022-10-26T10:17:27.242Z,16.70
2022-10-26T10:19:27.243Z,16.80
2022-10-26T10:21:27.190Z,16.80
2022-10-26T10:23:27.204Z,16.80
2022-10-26T10:25:27.227Z,16.80
2022-10-26T10:27:27.194Z,16.90
2022-10-26T10:29:27.206Z,16.90
2022-10-26T10:31:30.495Z,16.90
2022-10-26T10:33:27.254Z,17.00
2022-10-26T10:35:27.264Z,17.20
2022-10-26T10:37:27.184Z,17.40
2022-10-26T10:39:27.269Z,17.40
2022-10-26T10:41:27.229Z,17.90
2022-10-26T10:43:27.202Z,18.40
2022-10-26T10:45:27.276Z,18.40
2022-10-26T10:47:27.292Z,19.50
2022-10-26T10:49:27.355Z,19.50
2022-10-26T10:51:27.256Z,19.70
2022-10-26T10:53:27.229Z,20.10
2022-10-26T10:55:27.258Z,20.20
2022-10-26T10:57:27.249Z,20.20
2022-10-26T10:59:27.214Z,20.20
2022-10-26T11:01:27.383Z,20.00
2022-10-26T11:03:27.204Z,19.90
2022-10-26T11:05:27.742Z,20.40
2022-10-26T11:07:27.303Z,20.40
2022-10-26T11:09:27.474Z,20.20
2022-10-26T11:11:27.280Z,20.40
2022-10-26T11:13:27.260Z,20.40
2022-10-26T11:15:27.281Z,20.40
2022-10-26T11:17:27.286Z,20.40
2022-10-26T11:19:27.262Z,20.10
2022-10-26T11:21:27.335Z,20.30
2022-10-26T11:23:27.270Z,20.20
2022-10-26T11:25:27.261Z,20.20
2022-10-26T11:27:27.238Z,20.20
2022-10-26T11:29:27.257Z,20.30
2022-10-26T11:31:27.253Z,20.30
2022-10-26T11:33:27.272Z,20.90
2022-10-26T11:35:27.280Z,20.90
2022-10-26T11:37:27.323Z,20.80
2022-10-26T11:39:27.243Z,20.70
2022-10-26T11:41:27.336Z,20.50
2022-10-26T11:43:27.244Z,20.10
2022-10-26T11:45:27.286Z,20.10
2022-10-26T11:47:27.358Z,20.20
2022-10-26T11:49:27.277Z,20.40
2022-10-26T11:51:27.397Z,21.00
2022-10-26T11:53:27.250Z,20.70
2022-10-26T11:55:27.362Z,20.70
2022-10-26T11:57:27.329Z,20.50
2022-10-26T11:59:29.319Z,20.60
2022-10-26T12:01:27.455Z,20.20
2022-10-26T12:03:57.408Z,20.20
2022-10-26T12:05:57.425Z,19.60
2022-10-26T12:07:57.380Z,19.60
2022-10-26T12:09:57.386Z,20.10
2022-10-26T12:11:57.344Z,20.70
2022-10-26T12:13:57.544Z,20.70
2022-10-26T12:16:03.470Z,21.30
2022-10-26T12:17:57.462Z,22.00
2022-10-26T12:19:57.459Z,22.10
2022-10-26T12:23:52.980Z,22.10
2022-10-26T12:25:52.979Z,21.80
2022-10-26T12:27:53.046Z,21.50
2022-10-26T12:29:53.022Z,21.10
2022-10-26T12:31:53.065Z,21.10
2022-10-26T12:33:52.986Z,20.60
2022-10-26T12:35:52.992Z,20.30
2022-10-26T12:37:53.465Z,20.00
2022-10-26T12:39:53.113Z,19.80
2022-10-26T12:41:53.071Z,19.80
2022-10-26T12:43:52.988Z,19.40
2022-10-26T12:45:53.149Z,19.60
2022-10-26T12:47:53.061Z,19.60
2022-10-26T12:49:53.010Z,19.90
2022-10-26T12:51:53.139Z,19.90
2022-10-26T12:53:53.140Z,19.90
2022-10-26T12:55:53.008Z,19.50
2022-10-26T12:57:53.060Z,19.70
2022-10-26T12:59:53.054Z,19.70
2022-10-26T13:01:53.042Z,19.70
2022-10-26T13:03:53.017Z,19.60
2022-10-26T13:05:53.022Z,19.50
2022-10-26T13:07:53.137Z,19.30
2022-10-26T13:09:53.022Z,19.30
2022-10-26T13:11:53.035Z,19.10
2022-10-26T13:13:53.074Z,18.80
2022-10-26T13:15:53.091Z,18.60
2022-10-26T13:17:53.034Z,18.60
2022-10-26T13:19:53.041Z,18.60
2022-10-26T13:21:53.500Z,18.50
2022-10-26T13:23:53.020Z,18.30
2022-10-26T13:27:53.243Z,18.30
2022-10-26T13:29:53.050Z,18.30
2022-10-26T13:31:53.339Z,18.30
2022-10-26T13:33:53.084Z,18.40
2022-10-26T13:35:53.091Z,18.40
2022-10-26T13:37:53.523Z,18.40
2022-10-26T13:39:53.082Z,18.50
2022-10-26T13:41:53.152Z,18.60
2022-10-26T13:43:53.047Z,18.70
2022-10-26T13:46:23.049Z,18.70
2022-10-26T13:48:23.255Z,18.70
2022-10-26T13:50:23.075Z,18.80
2022-10-26T13:52:23.051Z,18.80
2022-10-26T13:54:23.052Z,18.80
2022-10-26T13:56:23.091Z,18.80
2022-10-26T13:58:23.086Z,18.80
2022-10-26T14:00:23.062Z,18.80
2022-10-26T14:02:23.506Z,18.80
2022-10-26T14:04:23.125Z,18.80
2022-10-26T14:06:23.104Z,18.60
2022-10-26T14:08:23.157Z,18.60
2022-10-26T14:10:23.106Z,18.60
2022-10-26T14:12:23.056Z,18.30
2022-10-26T14:14:23.082Z,18.30
2022-10-26T14:16:23.082Z,18.20
2022-10-26T14:18:23.101Z,18.20
2022-10-26T14:20:23.076Z,18.20
2022-10-26T14:22:23.395Z,18.10
2022-10-26T14:24:35.764Z,18.10
2022-10-26T14:26:23.082Z,18.20
2022-10-26T14:28:23.119Z,18.20
2022-10-26T14:30:23.392Z,18.20
2022-10-26T14:32:23.086Z,18.20
2022-10-26T14:34:23.128Z,18.30
2022-10-26T14:36:23.094Z,18.30
2022-10-26T14:38:23.095Z,18.30
2022-10-26T14:40:23.104Z,18.20
2022-10-26T14:42:23.128Z,18.30
2022-10-26T14:44:23.102Z,18.30
2022-10-26T14:46:23.084Z,18.40
2022-10-26T14:48:23.259Z,18.40
2022-10-26T14:50:23.168Z,18.40
2022-10-26T14:52:24.115Z,18.40
2022-10-26T14:54:23.194Z,18.40
2022-10-26T14:56:23.112Z,18.40
2022-10-26T14:58:26.688Z,18.40
2022-10-26T15:00:23.245Z,18.40
2022-10-26T15:02:23.262Z,18.40
2022-10-26T15:04:23.142Z,18.30
2022-10-26T15:06:23.108Z,18.30
2022-10-26T15:08:33.619Z,18.20
2022-10-26T15:10:23.187Z,18.20
2022-10-26T15:12:23.153Z,18.10
2022-10-26T15:14:23.112Z,18.10
2022-10-26T15:16:23.115Z,18.10
2022-10-26T15:18:23.257Z,18.00
2022-10-26T15:20:23.285Z,18.00
2022-10-26T15:22:23.158Z,17.80
2022-10-26T15:24:23.201Z,17.80
2022-10-26T15:26:23.121Z,17.80
2022-10-26T15:28:23.202Z,17.70
2022-10-26T15:30:23.191Z,17.70
2022-10-26T15:32:23.128Z,17.50
2022-10-26T15:34:23.150Z,17.50
2022-10-26T15:36:23.324Z,17.40
2022-10-26T15:38:23.664Z,17.30
2022-10-26T15:40:23.293Z,17.20
2022-10-26T15:42:23.501Z,17.10
2022-10-26T15:44:23.562Z,17.10
2022-10-26T15:46:53.678Z,17.00
2022-10-26T15:48:56.295Z,16.90
2022-10-26T15:50:56.231Z,16.70
2022-10-26T15:52:53.772Z,16.60
2022-10-26T15:54:53.197Z,16.60
2022-10-26T15:56:53.201Z,16.50
2022-10-26T15:58:53.351Z,16.40
2022-10-26T16:00:53.283Z,16.30
2022-10-26T16:02:53.313Z,16.30
2022-10-26T16:04:53.275Z,16.20
2022-10-26T16:06:53.300Z,16.00
2022-10-26T16:08:53.179Z,15.90
2022-10-26T16:10:53.265Z,15.90
2022-10-26T16:12:53.262Z,15.90
2022-10-26T16:15:05.139Z,15.90
2022-10-26T16:16:53.270Z,15.50
2022-10-26T16:19:06.056Z,15.40
2022-10-26T16:20:53.228Z,15.20
2022-10-26T16:22:53.500Z,15.20
2022-10-26T16:24:53.274Z,15.20
2022-10-26T16:26:53.260Z,15.00
2022-10-26T16:28:53.287Z,15.00
2022-10-26T16:30:53.276Z,15.00
2022-10-26T16:32:54.620Z,15.00
2022-10-26T16:34:53.286Z,15.00
2022-10-26T16:36:53.217Z,14.90
2022-10-26T16:38:53.389Z,14.80
2022-10-26T16:40:53.475Z,14.80
2022-10-26T16:42:53.328Z,14.70
2022-10-26T16:44:53.734Z,14.60
2022-10-26T16:46:53.306Z,14.50
2022-10-26T16:48:53.273Z,14.40
2022-10-26T16:50:53.309Z,14.40
2022-10-26T16:52:53.351Z,14.40
2022-10-26T16:54:53.383Z,14.30
2022-10-26T16:56:53.450Z,14.40
2022-10-26T16:58:53.255Z,14.40
2022-10-26T17:00:53.323Z,14.40
2022-10-26T17:02:53.330Z,14.40
2022-10-26T17:04:53.285Z,14.40
2022-10-26T17:06:53.200Z,14.40
2022-10-26T17:08:53.370Z,14.40
2022-10-26T17:10:53.282Z,14.40
2022-10-26T17:12:53.497Z,14.40
2022-10-26T17:14:53.302Z,14.40
2022-10-26T17:16:53.293Z,14.40
2022-10-26T17:18:53.301Z,14.40
2022-10-26T17:20:53.318Z,14.40
2022-10-26T17:22:53.334Z,14.40
2022-10-26T17:24:53.356Z,14.50
2022-10-26T17:26:53.348Z,14.50
2022-10-26T17:28:53.273Z,14.50
2022-10-26T17:30:53.369Z,14.60
2022-10-26T17:32:53.566Z,14.60
2022-10-26T17:34:53.324Z,14.50
2022-10-26T17:36:53.334Z,14.50
2022-10-26T17:38:53.389Z,14.50
2022-10-26T17:40:53.257Z,14.50
2022-10-26T17:42:53.300Z,14.40
2022-10-26T17:44:53.995Z,14.40
2022-10-26T17:47:23.340Z,14.40
2022-10-26T17:49:25.100Z,14.30
2022-10-26T17:51:23.327Z,14.30
2022-10-26T17:53:23.350Z,14.30
2022-10-26T17:55:23.391Z,14.20
2022-10-26T17:57:23.274Z,14.20
2022-10-26T17:59:23.252Z,14.20
2022-10-26T18:01:23.493Z,14.20
2022-10-26T18:03:23.318Z,14.10
2022-10-26T18:05:23.327Z,14.10
2022-10-26T18:07:23.307Z,14.10
2022-10-26T18:09:23.457Z,14.10
2022-10-26T18:11:26.738Z,14.10
2022-10-26T18:13:23.320Z,14.10
2022-10-26T18:15:23.285Z,14.00
2022-10-26T18:17:23.314Z,14.00
2022-10-26T18:19:23.364Z,14.00
2022-10-26T18:21:23.386Z,14.00
2022-10-26T18:23:23.287Z,14.10
2022-10-26T18:25:23.404Z,14.00
2022-10-26T18:27:23.392Z,14.00
2022-10-26T18:29:23.284Z,14.00
2022-10-26T18:31:23.394Z,14.00
2022-10-26T18:33:23.348Z,13.90
2022-10-26T18:35:23.383Z,13.80
2022-10-26T18:37:23.449Z,13.80
2022-10-26T18:39:23.419Z,13.80
2022-10-26T18:41:23.495Z,13.70
2022-10-26T18:43:23.375Z,13.60
2022-10-26T18:45:23.474Z,13.60
2022-10-26T18:47:23.452Z,13.60
2022-10-26T18:49:23.388Z,13.60
2022-10-26T18:51:23.471Z,13.60
2022-10-26T18:53:23.499Z,13.60
2022-10-26T18:55:23.400Z,13.60
2022-10-26T18:57:23.381Z,13.60
2022-10-26T18:59:23.325Z,13.60
2022-10-26T19:01:23.516Z,13.50
2022-10-26T19:03:23.393Z,13.50
2022-10-26T19:05:23.400Z,13.50
2022-10-26T19:07:23.393Z,13.50
2022-10-26T19:09:23.494Z,13.40
2022-10-26T19:11:23.388Z,13.40
2022-10-26T19:13:23.319Z,13.50
2022-10-26T19:15:23.380Z,13.50
2022-10-26T19:17:23.374Z,13.50
2022-10-26T19:19:23.322Z,13.50
2022-10-26T19:21:23.543Z,13.50
2022-10-26T19:23:23.323Z,13.40
2022-10-26T19:25:23.349Z,13.40
2022-10-26T19:27:23.444Z,13.40
2022-10-26T19:29:23.317Z,13.40
2022-10-26T19:31:26.953Z,13.40
2022-10-26T19:33:36.008Z,13.40
2022-10-26T19:37:36.115Z,13.60
2022-10-26T19:39:36.176Z,13.60
2022-10-26T19:41:36.037Z,13.60
2022-10-26T19:43:36.029Z,13.60
2022-10-26T19:45:36.037Z,13.60
2022-10-26T19:47:36.098Z,13.60
2022-10-26T19:49:36.058Z,13.60
2022-10-26T19:51:36.118Z,13.40
2022-10-26T19:53:36.146Z,13.40
2022-10-26T19:55:36.167Z,13.40
2022-10-26T19:57:36.038Z,13.30
2022-10-26T19:59:36.366Z,13.20
2022-10-26T20:01:36.105Z,13.20
2022-10-26T20:03:36.114Z,13.20
2022-10-26T20:05:36.086Z,13.10
2022-10-26T20:07:36.071Z,13.10
2022-10-26T20:09:36.091Z,13.00
2022-10-26T20:11:36.140Z,13.00
2022-10-26T20:13:36.037Z,13.00
2022-10-26T20:15:36.000Z,13.00
2022-10-26T20:17:36.096Z,13.00
2022-10-26T20:19:36.026Z,12.90
2022-10-26T20:21:36.026Z,12.90
2022-10-26T20:23:36.029Z,12.90
2022-10-26T20:25:36.058Z,13.00
2022-10-26T20:27:36.068Z,13.00
2022-10-26T20:29:36.189Z,13.00
2022-10-26T20:31:36.037Z,13.00
2022-10-26T20:33:36.121Z,13.00
2022-10-26T20:36:06.065Z,13.00
2022-10-26T20:38:06.121Z,13.00
2022-10-26T20:40:06.067Z,13.00
2022-10-26T20:42:06.036Z,13.00
2022-10-26T20:44:06.090Z,13.00
2022-10-26T20:46:06.110Z,13.00
2022-10-26T20:48:06.082Z,13.00
2022-10-26T20:50:06.198Z,12.90
2022-10-26T20:52:20.692Z,12.90
2022-10-26T20:54:06.163Z,12.90
2022-10-26T20:56:06.224Z,12.90
2022-10-26T20:58:06.100Z,12.80
2022-10-26T21:00:06.104Z,12.80
2022-10-26T21:02:06.111Z,12.90
2022-10-26T21:04:06.095Z,12.90
2022-10-26T21:06:06.419Z,12.80
2022-10-26T21:08:06.064Z,12.80
2022-10-26T21:10:06.173Z,12.80
2022-10-26T21:12:06.076Z,12.80
2022-10-26T21:14:06.111Z,12.90
2022-10-26T21:16:06.075Z,12.90
2022-10-26T21:18:06.070Z,13.00
2022-10-26T21:20:06.067Z,13.00
2022-10-26T21:22:06.056Z,13.00
2022-10-26T21:24:06.064Z,13.00
2022-10-26T21:26:06.083Z,12.90
2022-10-26T21:28:06.068Z,12.90
2022-10-26T21:30:06.088Z,12.80
2022-10-26T21:32:06.116Z,12.80
2022-10-26T21:34:06.070Z,12.70
2022-10-26T21:36:06.155Z,12.70
2022-10-26T21:38:06.156Z,12.70
2022-10-26T21:40:06.114Z,12.70
2022-10-26T21:42:06.081Z,12.30
2022-10-26T21:44:09.271Z,12.30
2022-10-26T21:46:06.113Z,12.30
2022-10-26T21:48:06.113Z,12.40
2022-10-26T21:50:06.328Z,12.40
2022-10-26T21:52:06.091Z,12.40
2022-10-26T21:54:06.181Z,12.50
2022-10-26T21:56:06.142Z,12.50
2022-10-26T21:58:06.210Z,12.50
2022-10-26T22:00:06.147Z,12.50
2022-10-26T22:02:06.259Z,12.30
2022-10-26T22:04:06.079Z,12.30
2022-10-26T22:06:06.253Z,12.00
2022-10-26T22:08:06.235Z,12.00
2022-10-26T22:10:11.674Z,12.00
2022-10-26T22:12:06.236Z,12.00
2022-10-26T22:14:06.124Z,12.00
2022-10-26T22:16:06.252Z,12.00
2022-10-26T22:18:06.183Z,12.00
2022-10-26T22:20:06.100Z,11.80
2022-10-26T22:22:06.143Z,11.80
2022-10-26T22:24:06.260Z,11.80
2022-10-26T22:26:06.102Z,11.80
2022-10-26T22:28:06.209Z,11.80
2022-10-26T22:30:06.134Z,11.80
2022-10-26T22:32:36.124Z,11.80
2022-10-26T22:34:36.167Z,11.80
2022-10-26T22:36:36.167Z,11.80
2022-10-26T22:38:36.593Z,11.80
2022-10-26T22:40:36.141Z,11.90
2022-10-26T22:42:36.158Z,12.00
2022-10-26T22:44:36.113Z,12.10
2022-10-26T22:46:36.135Z,12.10
2022-10-26T22:48:36.268Z,12.20
2022-10-26T22:50:36.394Z,12.30
2022-10-26T22:52:36.168Z,12.30
2022-10-26T22:54:36.133Z,12.40
2022-10-26T22:58:36.129Z,12.40
2022-10-26T23:00:36.155Z,12.60
2022-10-26T23:02:36.177Z,12.60
2022-10-26T23:04:36.258Z,12.70
2022-10-26T23:06:36.137Z,12.70
2022-10-26T23:08:36.200Z,12.70
2022-10-26T23:10:36.130Z,12.70
2022-10-26T23:12:36.166Z,12.70
2022-10-26T23:14:36.125Z,12.70
2022-10-26T23:16:36.182Z,12.70
2022-10-26T23:18:36.155Z,12.70
2022-10-26T23:20:36.148Z,12.70
2022-10-26T23:22:36.197Z,12.70
2022-10-26T23:24:36.185Z,12.70
2022-10-26T23:26:36.141Z,12.80
2022-10-26T23:28:36.276Z,12.80
2022-10-26T23:30:36.212Z,12.80
2022-10-26T23:32:36.190Z,12.80
2022-10-26T23:34:36.168Z,12.80
2022-10-26T23:36:36.196Z,12.80
2022-10-26T23:38:36.179Z,12.80
2022-10-26T23:40:36.180Z,12.60
2022-10-26T23:42:36.250Z,12.60
2022-10-26T23:44:36.158Z,12.40
2022-10-26T23:46:36.153Z,12.40
2022-10-26T23:48:36.175Z,12.20
2022-10-26T23:50:36.189Z,12.10
2022-10-26T23:52:36.170Z,12.10
2022-10-26T23:54:36.223Z,12.00
2022-10-26T23:56:36.221Z,11.90
2022-10-26T23:58:36.157Z,11.80
